createdAt,value
2023-05-24T00:01:30.855Z,10.88
2023-05-24T00:06:34.976Z,10.93
2023-05-24T00:11:36.664Z,10.79
2023-05-24T00:16:38.358Z,10.91
2023-05-24T00:21:40.079Z,10.99
2023-05-24T00:26:41.728Z,11.03
2023-05-24T00:31:43.475Z,11.02
2023-05-24T00:36:45.273Z,11.08
2023-05-24T00:41:46.958Z,10.98
2023-05-24T00:46:48.765Z,11.03
2023-05-24T00:51:53.471Z,10.96
2023-05-24T00:56:56.691Z,10.70
2023-05-24T01:02:00.650Z,10.79
2023-05-24T01:07:02.287Z,10.84
2023-05-24T01:12:07.072Z,10.78
2023-05-24T01:17:52.220Z,10.82
2023-05-24T01:23:12.728Z,10.59
2023-05-24T01:28:17.349Z,10.76
2023-05-24T01:33:19.531Z,10.56
2023-05-24T01:38:21.189Z,10.31
2023-05-24T01:43:31.577Z,10.42
2023-05-24T01:48:42.102Z,10.26
2023-05-24T01:53:47.718Z,10.12
2023-05-24T01:58:52.878Z,10.27
2023-05-24T02:03:55.595Z,10.22
2023-05-24T02:08:57.324Z,10.02
2023-05-24T02:13:58.973Z,10.08
2023-05-24T02:19:00.634Z,9.97
2023-05-24T02:24:02.314Z,10.03
2023-05-24T02:29:04.535Z,9.83
2023-05-24T02:34:06.217Z,9.72
2023-05-24T02:39:07.895Z,9.75
2023-05-24T02:44:09.754Z,10.00
2023-05-24T02:49:11.460Z,9.90
2023-05-24T02:54:13.106Z,9.72
2023-05-24T02:59:15.063Z,9.80
2023-05-24T03:04:17.379Z,9.90
2023-05-24T03:09:19.180Z,9.78
2023-05-24T03:14:24.000Z,9.67
2023-05-24T03:19:26.593Z,9.74
2023-05-24T03:24:28.566Z,9.53
2023-05-24T03:29:30.244Z,9.56
2023-05-24T03:34:32.375Z,9.66
2023-05-24T03:39:34.540Z,9.36
2023-05-24T03:44:50.502Z,9.65
2023-05-24T03:49:52.267Z,9.50
2023-05-24T03:54:53.985Z,9.32
2023-05-24T03:59:55.925Z,9.47
2023-05-24T04:04:57.842Z,9.53
2023-05-24T04:10:00.030Z,9.66
2023-05-24T04:15:01.999Z,9.56
2023-05-24T04:20:05.812Z,9.59
2023-05-24T04:25:10.060Z,9.48
2023-05-24T04:30:12.228Z,9.90
2023-05-24T04:35:14.307Z,10.11
2023-05-24T04:40:20.949Z,9.67
2023-05-24T04:45:22.702Z,9.74
2023-05-24T04:50:24.463Z,10.02
2023-05-24T04:55:26.128Z,10.32
2023-05-24T05:00:27.815Z,10.23
2023-05-24T05:05:29.590Z,10.25
2023-05-24T05:10:31.257Z,10.54
2023-05-24T05:15:33.037Z,10.32
2023-05-24T05:20:34.909Z,10.20
2023-05-24T05:25:36.653Z,9.78
2023-05-24T05:30:38.335Z,10.27
2023-05-24T05:35:40.077Z,10.27
2023-05-24T05:40:41.975Z,10.29
2023-05-24T05:45:43.788Z,10.59
2023-05-24T05:50:45.436Z,10.13
2023-05-24T05:55:47.113Z,10.39
2023-05-24T06:00:48.784Z,11.25
2023-05-24T06:05:50.489Z,10.77
2023-05-24T06:10:53.062Z,10.54
2023-05-24T06:15:55.445Z,10.63
2023-05-24T06:20:57.143Z,11.80
2023-05-24T06:25:59.133Z,10.69
2023-05-24T06:31:00.892Z,12.17
2023-05-24T06:36:02.624Z,11.44
2023-05-24T06:41:04.313Z,10.92
2023-05-24T06:46:06.969Z,10.91
2023-05-24T06:51:08.691Z,11.96
2023-05-24T06:56:10.472Z,11.56
2023-05-24T07:01:12.218Z,10.99
2023-05-24T07:06:15.740Z,11.08
2023-05-24T07:11:17.512Z,11.96
2023-05-24T07:16:19.438Z,11.66
2023-05-24T07:21:21.568Z,11.82
2023-05-24T07:26:23.802Z,11.23
2023-05-24T07:31:26.653Z,11.74
2023-05-24T07:36:31.588Z,11.95
2023-05-24T07:41:37.158Z,11.97
2023-05-24T07:46:38.941Z,12.26
2023-05-24T07:51:40.607Z,12.10
2023-05-24T07:56:42.974Z,12.06
2023-05-24T08:01:44.662Z,11.39
2023-05-24T08:06:46.764Z,11.67
2023-05-24T08:11:48.565Z,11.66
2023-05-24T08:16:50.235Z,10.87
2023-05-24T08:21:52.200Z,11.35
2023-05-24T08:26:53.869Z,11.47
2023-05-24T08:31:55.618Z,11.09
2023-05-24T08:36:57.900Z,11.90
2023-05-24T08:47:09.061Z,12.44
2023-05-24T08:52:12.743Z,12.31
2023-05-24T08:57:15.868Z,11.97
2023-05-24T09:02:18.650Z,13.01
2023-05-24T09:07:24.335Z,13.90
2023-05-24T09:12:36.558Z,14.32
2023-05-24T09:17:43.457Z,13.71
2023-05-24T09:22:47.526Z,14.40
2023-05-24T09:27:51.553Z,13.73
2023-05-24T09:33:01.268Z,13.69
2023-05-24T09:38:04.031Z,14.00
2023-05-24T09:43:10.139Z,15.03
2023-05-24T09:48:13.721Z,15.16
2023-05-24T09:53:19.384Z,15.17
2023-05-24T09:58:21.915Z,14.71
2023-05-24T10:03:25.381Z,16.15
2023-05-24T10:08:28.020Z,18.14
2023-05-24T10:13:29.772Z,15.98
2023-05-24T10:18:31.950Z,19.11
2023-05-24T10:23:35.650Z,16.77
2023-05-24T10:29:01.216Z,15.48
2023-05-24T10:34:08.651Z,14.96
2023-05-24T10:39:13.869Z,16.57
2023-05-24T10:44:19.523Z,14.96
2023-05-24T10:49:22.667Z,16.16
2023-05-24T10:54:27.370Z,16.06
2023-05-24T10:59:37.481Z,16.42
2023-05-24T11:04:43.552Z,18.05
2023-05-24T11:09:52.780Z,18.06
2023-05-24T11:14:54.529Z,18.78
2023-05-24T11:19:56.829Z,20.06
2023-05-24T11:25:02.758Z,20.69
2023-05-24T11:30:06.057Z,17.56
2023-05-24T11:35:11.080Z,17.40
2023-05-24T11:40:13.829Z,16.71
2023-05-24T11:45:17.759Z,15.63
2023-05-24T11:50:26.614Z,15.74
2023-05-24T11:55:30.722Z,18.30
2023-05-24T12:00:32.631Z,18.37
2023-05-24T12:05:34.466Z,17.97
2023-05-24T12:10:37.866Z,16.14
2023-05-24T12:15:39.697Z,18.37
2023-05-24T12:20:42.457Z,18.17
2023-05-24T12:25:44.490Z,17.98
2023-05-24T12:30:46.637Z,17.60
2023-05-24T12:35:48.736Z,17.99
2023-05-24T12:41:07.441Z,16.77
2023-05-24T12:46:13.311Z,18.21
2023-05-24T12:51:15.002Z,16.83
2023-05-24T12:56:17.035Z,16.47
2023-05-24T13:01:19.190Z,15.86
2023-05-24T13:06:21.051Z,16.82
2023-05-24T13:11:25.212Z,18.01
2023-05-24T13:16:27.071Z,19.65
2023-05-24T13:21:29.420Z,17.99
2023-05-24T13:26:31.229Z,17.95
2023-05-24T13:31:33.361Z,17.49
2023-05-24T13:36:35.166Z,16.88
2023-05-24T13:41:37.222Z,16.94
2023-05-24T13:46:39.288Z,16.72
2023-05-24T13:51:41.096Z,16.94
2023-05-24T13:56:44.816Z,17.13
2023-05-24T14:01:46.674Z,17.95
2023-05-24T14:06:48.335Z,18.59
2023-05-24T14:11:50.145Z,17.82
2023-05-24T14:16:54.977Z,18.03
2023-05-24T14:21:56.746Z,17.56
2023-05-24T14:26:58.474Z,17.56
2023-05-24T14:32:00.296Z,17.33
2023-05-24T14:37:02.252Z,16.75
2023-05-24T14:42:04.092Z,17.08
2023-05-24T14:47:06.068Z,16.97
2023-05-24T14:52:07.723Z,17.07
2023-05-24T14:57:09.527Z,17.07
2023-05-24T15:02:11.662Z,16.73
2023-05-24T15:07:13.334Z,16.65
2023-05-24T15:12:15.158Z,17.02
2023-05-24T15:17:17.549Z,16.91
2023-05-24T15:22:20.618Z,17.15
2023-05-24T15:27:22.287Z,16.62
2023-05-24T15:32:23.962Z,17.03
2023-05-24T15:37:25.915Z,16.35
2023-05-24T15:42:27.709Z,16.13
2023-05-24T15:47:30.432Z,16.60
2023-05-24T15:52:32.203Z,16.08
2023-05-24T15:57:33.864Z,16.05
2023-05-24T16:02:35.771Z,16.93
2023-05-24T16:07:37.489Z,17.05
2023-05-24T16:12:39.163Z,17.21
2023-05-24T16:17:40.921Z,17.25
2023-05-24T16:22:51.475Z,16.60
2023-05-24T16:27:55.508Z,16.39
2023-05-24T16:32:57.283Z,16.46
2023-05-24T16:37:59.093Z,16.67
2023-05-24T16:43:00.728Z,15.72
2023-05-24T16:48:02.577Z,15.86
2023-05-24T16:53:06.470Z,15.62
2023-05-24T16:58:08.468Z,15.78
2023-05-24T17:03:10.355Z,15.92
2023-05-24T17:08:12.168Z,15.90
2023-05-24T17:13:13.831Z,15.84
2023-05-24T17:18:15.725Z,15.72
2023-05-24T17:23:18.586Z,15.93
2023-05-24T17:28:27.512Z,15.68
2023-05-24T17:33:30.708Z,15.22
2023-05-24T17:38:37.695Z,15.12
2023-05-24T17:43:40.529Z,15.10
2023-05-24T17:48:43.501Z,15.08
2023-05-24T17:53:46.476Z,14.84
2023-05-24T17:58:48.599Z,14.81
2023-05-24T18:03:50.249Z,14.71
2023-05-24T18:08:51.920Z,14.57
2023-05-24T18:13:53.648Z,14.40
2023-05-24T18:18:55.340Z,14.16
2023-05-24T18:23:57.181Z,14.16
2023-05-24T18:28:58.815Z,14.08
2023-05-24T18:34:01.909Z,13.88
2023-05-24T18:39:04.237Z,13.81
2023-05-24T18:44:06.009Z,13.46
2023-05-24T18:49:10.988Z,13.22
2023-05-24T18:54:13.810Z,12.96
2023-05-24T18:59:16.847Z,12.62
2023-05-24T19:04:18.539Z,12.55
2023-05-24T19:09:20.194Z,12.36
2023-05-24T19:14:22.174Z,11.97
2023-05-24T19:19:23.830Z,11.57
2023-05-24T19:24:26.028Z,11.39
2023-05-24T19:29:28.235Z,11.19
2023-05-24T19:34:31.960Z,10.86
2023-05-24T19:39:33.633Z,10.96
2023-05-24T19:44:35.298Z,10.80
2023-05-24T19:49:37.003Z,10.80
2023-05-24T19:54:38.640Z,10.61
2023-05-24T19:59:40.439Z,10.24
2023-05-24T20:04:43.819Z,10.49
2023-05-24T20:09:45.562Z,10.32
2023-05-24T20:14:47.284Z,10.05
2023-05-24T20:19:48.963Z,9.83
2023-05-24T20:24:50.741Z,9.98
2023-05-24T20:29:52.399Z,9.81
2023-05-24T20:34:54.055Z,9.44
2023-05-24T20:39:56.092Z,9.25
2023-05-24T20:44:58.106Z,9.24
2023-05-24T20:49:59.795Z,9.36
2023-05-24T20:55:01.724Z,9.00
2023-05-24T21:00:04.571Z,9.28
2023-05-24T21:05:06.748Z,9.11
2023-05-24T21:10:09.432Z,9.19
2023-05-24T21:15:11.245Z,9.03
2023-05-24T21:20:12.935Z,8.97
2023-05-24T21:25:14.749Z,8.76
2023-05-24T21:30:16.509Z,8.78
2023-05-24T21:35:18.257Z,8.83
2023-05-24T21:40:19.908Z,8.55
2023-05-24T21:45:21.607Z,8.70
2023-05-24T21:50:23.250Z,8.59
2023-05-24T21:55:24.972Z,8.40
2023-05-24T22:00:27.219Z,8.56
2023-05-24T22:05:28.898Z,8.31
2023-05-24T22:10:30.573Z,8.31
2023-05-24T22:15:32.261Z,8.42
2023-05-24T22:20:34.162Z,8.14
2023-05-24T22:25:36.312Z,8.10
2023-05-24T22:30:38.054Z,8.00
2023-05-24T22:35:40.075Z,7.75
2023-05-24T22:40:42.406Z,7.92
2023-05-24T22:45:44.372Z,7.79
2023-05-24T22:50:46.738Z,7.60
2023-05-24T22:55:48.414Z,7.78
2023-05-24T23:00:51.356Z,7.74
2023-05-24T23:05:53.726Z,7.65
2023-05-24T23:10:58.210Z,7.65
2023-05-24T23:16:00.279Z,7.60
2023-05-24T23:21:03.088Z,7.68
2023-05-24T23:26:04.794Z,7.63
2023-05-24T23:31:06.548Z,7.28
2023-05-24T23:36:09.991Z,7.10
2023-05-24T23:41:11.825Z,7.22
2023-05-24T23:46:17.214Z,7.13
2023-05-24T23:51:20.331Z,6.96
2023-05-24T23:56:22.228Z,6.81
